Changsha Huanghua International Airport (CSX/ZGHA)




Flight Aircraft Arriving
CPX2856 B744
B77L
PANC - Ted Stevens Anchorage International Airport
United StatesAlaska Anchorage, Alaska
Flight Aircraft Departing
CPX590 B744
B77L
ZBAD - Beijing Daxing International Airport
China Beijing, China
CPX2855 B744
B77L
PANC - Ted Stevens Anchorage International Airport
United StatesAlaska Anchorage, Alaska
Airport Information
Location: Changcha, CN
Coordinates: 28.1892 / 113.22
Elevation:
Time Offset:
Local Time:
UTC Time:
Jet A Price: $/lbs

Current Weather
METAR: ZGHA 051300Z 02002MPS 5000 BR NSC 07/04 Q1028 NOSIG
TAF: TAF ZGHA 050908Z 0512/0612 35004MPS 3500 BR BKN040 TX09/0607Z TN04/0522Z BECMG 0520/0521 2000 BECMG 0522/0523 1200 BECMG 0601/0602 3500

Recent Arrivals
Date Flight Type Depart
12/25/2019 CPX590 B744 Beijing Daxing International Airport (ZBAD)
Recent Departures
Date Flight Type Arrive
12/26/2019 CPX2856 B744 Ted Stevens Anchorage International Airport (PANC)